createdAt,value
2023-02-06T00:01:08.449Z,2.45
2023-02-06T00:03:10.348Z,3.13
2023-02-06T00:05:11.834Z,3.33
2023-02-06T00:07:13.221Z,2.47
2023-02-06T00:09:14.709Z,2.67
2023-02-06T00:11:16.953Z,2.47
2023-02-06T00:13:18.414Z,2.75
2023-02-06T00:15:19.973Z,2.83
2023-02-06T00:17:21.368Z,2.97
2023-02-06T00:19:22.787Z,4.00
2023-02-06T00:21:26.011Z,2.97
2023-02-06T00:23:27.393Z,4.13
2023-02-06T00:25:28.761Z,3.67
2023-02-06T00:27:30.118Z,2.65
2023-02-06T00:29:31.545Z,3.70
2023-02-06T00:31:32.994Z,3.08
2023-02-06T00:33:34.888Z,3.10
2023-02-06T00:35:36.617Z,3.33
2023-02-06T00:37:38.083Z,3.28
2023-02-06T00:39:39.480Z,2.55
2023-02-06T00:41:40.827Z,3.00
2023-02-06T00:43:43.358Z,3.63
2023-02-06T00:45:44.820Z,2.85
2023-02-06T00:47:46.203Z,3.15
2023-02-06T00:49:47.607Z,4.22
2023-02-06T00:51:49.056Z,4.03
2023-02-06T00:53:51.293Z,4.03
2023-02-06T00:55:52.729Z,3.28
2023-02-06T00:57:54.139Z,3.22
2023-02-06T00:59:55.517Z,3.42
2023-02-06T01:01:56.968Z,3.50
2023-02-06T01:03:58.543Z,3.75
2023-02-06T01:06:00.002Z,3.00
2023-02-06T01:08:04.031Z,4.10
2023-02-06T01:10:07.886Z,4.35
2023-02-06T01:12:09.276Z,3.25
2023-02-06T01:14:10.723Z,3.42
2023-02-06T01:16:14.705Z,3.10
2023-02-06T01:18:16.107Z,3.78
2023-02-06T01:20:17.576Z,3.78
2023-02-06T01:22:19.037Z,3.30
2023-02-06T01:24:20.379Z,3.17
2023-02-06T01:26:24.546Z,4.03
2023-02-06T01:28:27.064Z,3.17
2023-02-06T01:30:28.463Z,4.28
2023-02-06T01:32:29.809Z,4.30
2023-02-06T01:34:31.210Z,3.55
2023-02-06T01:36:32.590Z,3.35
2023-02-06T01:38:33.984Z,3.00
2023-02-06T01:40:35.404Z,3.00
2023-02-06T01:42:37.856Z,4.05
2023-02-06T01:44:39.662Z,4.15
2023-02-06T01:46:43.832Z,3.17
2023-02-06T01:48:54.133Z,3.10
2023-02-06T01:50:58.722Z,3.22
2023-02-06T01:53:01.735Z,3.70
2023-02-06T01:55:05.056Z,3.17
2023-02-06T01:57:10.563Z,3.53
2023-02-06T01:59:12.530Z,4.38
2023-02-06T02:01:15.365Z,3.60
2023-02-06T02:03:16.904Z,3.97
2023-02-06T02:05:19.580Z,3.95
2023-02-06T02:07:25.118Z,3.63
2023-02-06T02:09:27.024Z,3.58
2023-02-06T02:11:32.975Z,3.45
2023-02-06T02:13:36.504Z,3.33
2023-02-06T02:16:13.527Z,3.42
2023-02-06T02:18:26.237Z,3.17
2023-02-06T02:21:11.154Z,2.72
2023-02-06T02:23:27.843Z,3.20
2023-02-06T02:26:09.009Z,3.05
2023-02-06T02:28:42.704Z,3.22
2023-02-06T02:30:54.335Z,3.58
2023-02-06T02:33:17.474Z,4.25
2023-02-06T02:35:31.937Z,2.92
2023-02-06T02:37:55.308Z,4.32
2023-02-06T02:40:08.608Z,3.70
2023-02-06T02:42:13.111Z,3.72
2023-02-06T02:44:29.685Z,3.20
2023-02-06T02:46:37.187Z,3.28
2023-02-06T02:48:42.883Z,3.95
2023-02-06T02:50:44.785Z,3.75
2023-02-06T02:52:46.426Z,3.63
2023-02-06T02:54:47.813Z,3.30
2023-02-06T02:56:49.268Z,3.15
2023-02-06T02:59:04.719Z,3.55
2023-02-06T03:01:11.417Z,4.80
2023-02-06T03:03:15.629Z,3.15
2023-02-06T03:05:21.941Z,3.92
2023-02-06T03:07:35.017Z,3.67
2023-02-06T03:09:54.628Z,4.68
2023-02-06T03:12:12.755Z,3.90
2023-02-06T03:14:34.422Z,4.38
2023-02-06T03:16:45.764Z,3.85
2023-02-06T03:19:01.792Z,3.90
2023-02-06T03:21:06.447Z,4.00
2023-02-06T03:23:12.131Z,3.90
2023-02-06T03:25:20.147Z,4.97
2023-02-06T03:27:22.904Z,4.18
2023-02-06T03:29:25.864Z,4.13
2023-02-06T03:31:39.871Z,4.07
2023-02-06T03:33:52.890Z,3.40
2023-02-06T03:35:56.846Z,4.22
2023-02-06T03:37:58.347Z,3.90
2023-02-06T03:40:01.693Z,4.30
2023-02-06T03:42:05.079Z,3.38
2023-02-06T03:44:10.310Z,3.42
2023-02-06T03:46:14.483Z,2.88
2023-02-06T03:48:23.670Z,3.50
2023-02-06T03:50:26.813Z,3.03
2023-02-06T03:52:35.942Z,4.25
2023-02-06T03:54:42.807Z,4.05
2023-02-06T03:56:48.515Z,3.45
2023-02-06T03:58:49.977Z,3.33
2023-02-06T04:00:52.437Z,3.47
2023-02-06T04:02:56.647Z,2.85
2023-02-06T04:04:58.034Z,4.15
2023-02-06T04:07:12.716Z,3.53
2023-02-06T04:09:14.128Z,3.72
2023-02-06T04:11:15.668Z,3.28
2023-02-06T04:13:17.056Z,3.35
2023-02-06T04:15:18.608Z,3.33
2023-02-06T04:17:38.545Z,2.88
2023-02-06T04:19:42.135Z,4.85
2023-02-06T04:21:43.710Z,3.33
2023-02-06T04:23:45.164Z,3.15
2023-02-06T04:25:47.232Z,3.88
2023-02-06T04:27:49.768Z,3.55
2023-02-06T04:29:51.248Z,3.47
2023-02-06T04:31:52.631Z,3.58
2023-02-06T04:33:54.008Z,3.15
2023-02-06T04:35:55.415Z,3.67
2023-02-06T04:37:56.817Z,3.42
2023-02-06T04:39:58.193Z,4.22
2023-02-06T04:41:59.802Z,4.07
2023-02-06T04:44:01.266Z,4.78
2023-02-06T04:46:02.749Z,3.83
2023-02-06T04:48:04.254Z,4.63
2023-02-06T04:50:06.166Z,4.45
2023-02-06T04:52:07.546Z,4.57
2023-02-06T04:54:12.615Z,4.30
2023-02-06T04:56:13.981Z,4.97
2023-02-06T04:58:15.379Z,5.40
2023-02-06T05:00:17.130Z,5.88
2023-02-06T05:02:18.566Z,7.05
2023-02-06T05:04:20.042Z,6.10
2023-02-06T05:06:21.437Z,6.80
2023-02-06T05:08:22.820Z,5.32
2023-02-06T05:10:24.283Z,5.03
2023-02-06T05:12:25.739Z,4.97
2023-02-06T05:14:27.187Z,5.60
2023-02-06T05:16:28.725Z,7.45
2023-02-06T05:18:30.107Z,7.60
2023-02-06T05:20:31.602Z,9.27
2023-02-06T05:22:32.992Z,8.05
2023-02-06T05:24:34.404Z,9.18
2023-02-06T05:26:35.760Z,7.28
2023-02-06T05:28:37.118Z,7.13
2023-02-06T05:30:38.658Z,6.65
2023-02-06T05:32:40.696Z,7.07
2023-02-06T05:34:42.039Z,6.63
2023-02-06T05:36:43.425Z,6.97
2023-02-06T05:38:44.904Z,6.00
2023-02-06T05:40:49.912Z,6.43
2023-02-06T05:42:51.381Z,7.13
2023-02-06T05:44:52.811Z,6.75
2023-02-06T05:46:54.401Z,7.50
2023-02-06T05:48:55.771Z,5.90
2023-02-06T05:50:58.187Z,6.97
2023-02-06T05:52:59.555Z,6.80
2023-02-06T05:55:00.952Z,6.80
2023-02-06T05:57:02.709Z,6.32
2023-02-06T05:59:04.156Z,6.40
2023-02-06T06:01:05.572Z,5.35
2023-02-06T06:03:06.933Z,6.30
2023-02-06T06:05:08.582Z,6.57
2023-02-06T06:07:09.991Z,6.07
2023-02-06T06:09:11.809Z,6.68
2023-02-06T06:11:13.316Z,5.20
2023-02-06T06:13:14.695Z,5.78
2023-02-06T06:15:16.399Z,5.82
2023-02-06T06:17:17.804Z,5.90
2023-02-06T06:19:19.435Z,7.13
2023-02-06T06:21:20.815Z,7.30
2023-02-06T06:23:22.308Z,7.68
2023-02-06T06:25:23.790Z,7.05
2023-02-06T06:27:25.284Z,7.95
2023-02-06T06:29:26.940Z,7.32
2023-02-06T06:31:28.424Z,7.05
2023-02-06T06:33:29.842Z,8.32
2023-02-06T06:35:31.438Z,8.98
2023-02-06T06:37:32.809Z,9.02
2023-02-06T06:39:34.260Z,10.13
2023-02-06T06:41:35.693Z,10.52
2023-02-06T06:43:37.380Z,11.55
2023-02-06T06:45:39.244Z,10.60
2023-02-06T06:47:40.901Z,10.88
2023-02-06T06:49:42.279Z,10.45
2023-02-06T06:51:43.707Z,9.00
2023-02-06T06:53:45.106Z,9.02
2023-02-06T06:55:46.473Z,10.68
2023-02-06T06:57:47.881Z,10.25
2023-02-06T06:59:49.968Z,9.85
2023-02-06T07:01:52.452Z,9.90
2023-02-06T07:03:53.853Z,9.15
2023-02-06T07:05:55.305Z,10.02
2023-02-06T07:07:56.852Z,9.45
2023-02-06T07:09:59.634Z,10.25
2023-02-06T07:12:01.173Z,10.13
2023-02-06T07:14:03.614Z,10.23
2023-02-06T07:16:05.399Z,11.25
2023-02-06T07:18:07.060Z,10.02
2023-02-06T07:20:09.177Z,10.05
2023-02-06T07:22:10.558Z,10.02
2023-02-06T07:24:11.983Z,9.27
2023-02-06T07:26:13.447Z,11.10
2023-02-06T07:28:14.834Z,10.77
2023-02-06T07:30:16.406Z,9.68
2023-02-06T07:32:17.767Z,10.98
2023-02-06T07:34:19.142Z,10.45
2023-02-06T07:36:20.534Z,9.05
2023-02-06T07:38:22.192Z,10.18
2023-02-06T07:40:25.113Z,9.70
2023-02-06T07:42:26.576Z,8.75
2023-02-06T07:44:28.026Z,8.95
2023-02-06T07:46:29.412Z,7.80
2023-02-06T07:48:30.913Z,8.88
2023-02-06T07:50:32.593Z,9.65
2023-02-06T07:52:34.046Z,9.20
2023-02-06T07:54:35.496Z,9.07
2023-02-06T07:56:37.166Z,9.07
2023-02-06T07:58:38.562Z,9.48
2023-02-06T08:00:40.850Z,7.88
2023-02-06T08:02:42.440Z,8.45
2023-02-06T08:04:44.025Z,9.05
2023-02-06T08:06:45.647Z,8.90
2023-02-06T08:08:47.647Z,9.25
2023-02-06T08:10:49.491Z,9.80
2023-02-06T08:12:51.157Z,9.73
2023-02-06T08:14:52.579Z,8.63
2023-02-06T08:16:54.374Z,8.68
2023-02-06T08:18:55.795Z,9.07
2023-02-06T08:21:02.341Z,8.18
2023-02-06T08:23:04.153Z,6.88
2023-02-06T08:25:06.317Z,8.50
2023-02-06T08:27:07.790Z,8.60
2023-02-06T08:29:09.965Z,7.25
2023-02-06T08:31:14.230Z,9.02
2023-02-06T08:33:15.670Z,8.32
2023-02-06T08:35:17.296Z,9.00
2023-02-06T08:37:18.800Z,8.00
2023-02-06T08:39:20.254Z,7.65
2023-02-06T08:41:29.760Z,7.90
2023-02-06T08:43:33.031Z,7.82
2023-02-06T08:45:34.964Z,7.15
2023-02-06T08:47:36.430Z,8.00
2023-02-06T08:49:38.214Z,7.30
2023-02-06T08:51:40.300Z,8.05
2023-02-06T08:53:41.658Z,8.90
2023-02-06T08:55:43.150Z,7.70
2023-02-06T08:57:44.531Z,7.65
2023-02-06T08:59:45.945Z,6.70
2023-02-06T09:01:49.209Z,7.43
2023-02-06T09:03:55.158Z,6.93
2023-02-06T09:06:09.510Z,6.90
2023-02-06T09:08:11.612Z,7.65
2023-02-06T09:10:30.343Z,7.63
2023-02-06T09:12:31.734Z,6.45
2023-02-06T09:14:35.312Z,5.90
2023-02-06T09:16:37.866Z,6.40
2023-02-06T09:18:39.628Z,6.05
2023-02-06T09:20:41.006Z,6.00
2023-02-06T09:22:44.470Z,6.13
2023-02-06T09:24:45.954Z,6.15
2023-02-06T09:26:59.378Z,6.82
2023-02-06T09:29:05.482Z,6.50
2023-02-06T09:31:08.480Z,6.88
2023-02-06T09:33:09.920Z,7.20
2023-02-06T09:35:11.292Z,7.05
2023-02-06T09:37:12.672Z,7.20
2023-02-06T09:39:14.114Z,8.35
2023-02-06T09:41:23.987Z,7.95
2023-02-06T09:43:25.814Z,7.53
2023-02-06T09:45:29.505Z,7.97
2023-02-06T09:47:35.139Z,7.13
2023-02-06T09:49:52.728Z,7.95
2023-02-06T09:51:57.069Z,7.82
2023-02-06T09:54:09.009Z,7.95
2023-02-06T09:56:42.865Z,7.45
2023-02-06T09:59:07.876Z,6.75
2023-02-06T10:01:25.434Z,6.70
2023-02-06T10:03:53.796Z,8.18
2023-02-06T10:06:14.630Z,7.22
2023-02-06T10:08:25.357Z,7.97
2023-02-06T10:10:36.334Z,7.00
2023-02-06T10:12:44.691Z,7.68
2023-02-06T10:14:52.790Z,7.35
2023-02-06T10:16:59.988Z,6.45
2023-02-06T10:21:26.707Z,7.15
2023-02-06T10:23:47.672Z,7.15
2023-02-06T10:26:04.267Z,6.47
2023-02-06T10:28:25.991Z,5.93
2023-02-06T10:30:58.374Z,6.68
2023-02-06T10:35:18.984Z,5.50
2023-02-06T10:37:35.669Z,5.95
2023-02-06T10:40:26.042Z,5.78
2023-02-06T10:42:45.486Z,5.68
2023-02-06T10:45:13.186Z,5.57
2023-02-06T10:47:30.408Z,5.57
2023-02-06T10:49:35.649Z,6.18
2023-02-06T10:51:43.143Z,6.40
2023-02-06T10:53:57.779Z,5.80
2023-02-06T10:56:06.969Z,5.47
2023-02-06T10:58:18.760Z,6.15
2023-02-06T11:00:24.864Z,5.95
2023-02-06T11:02:44.297Z,5.97
2023-02-06T11:05:07.948Z,5.90
2023-02-06T11:07:17.797Z,5.13
2023-02-06T11:09:19.205Z,5.03
2023-02-06T11:11:22.747Z,5.57
2023-02-06T11:13:34.934Z,5.35
2023-02-06T11:15:54.585Z,5.22
2023-02-06T11:17:56.507Z,5.40
2023-02-06T11:20:21.664Z,5.57
2023-02-06T11:22:33.338Z,5.13
2023-02-06T11:24:39.634Z,4.88
2023-02-06T11:26:50.019Z,5.20
2023-02-06T11:28:59.524Z,5.90
2023-02-06T11:31:09.787Z,5.72
2023-02-06T11:33:26.413Z,5.68
2023-02-06T11:35:33.284Z,5.97
2023-02-06T11:37:38.347Z,5.35
2023-02-06T11:39:39.936Z,6.00
2023-02-06T11:41:47.282Z,5.82
2023-02-06T11:43:50.887Z,6.13
2023-02-06T11:46:08.231Z,4.85
2023-02-06T11:48:39.215Z,6.85
2023-02-06T11:50:41.218Z,6.53
2023-02-06T11:52:46.880Z,5.75
2023-02-06T11:54:54.142Z,6.18
2023-02-06T11:57:03.449Z,6.47
2023-02-06T11:59:26.979Z,7.18
2023-02-06T12:01:28.564Z,6.88
2023-02-06T12:03:32.647Z,6.82
2023-02-06T12:05:40.550Z,8.13
2023-02-06T12:07:46.010Z,7.22
2023-02-06T12:09:47.566Z,8.43
2023-02-06T12:11:56.107Z,7.95
2023-02-06T12:14:20.321Z,8.25
2023-02-06T12:16:23.305Z,8.20
2023-02-06T12:18:34.809Z,8.05
2023-02-06T12:20:46.879Z,7.47
2023-02-06T12:22:54.108Z,8.00
2023-02-06T12:24:56.879Z,7.95
2023-02-06T12:27:02.460Z,7.80
2023-02-06T12:29:41.878Z,7.93
2023-02-06T12:32:04.479Z,7.38
2023-02-06T12:34:50.456Z,7.10
2023-02-06T12:37:10.705Z,6.63
2023-02-06T12:39:20.023Z,7.32
2023-02-06T12:41:40.786Z,6.38
2023-02-06T12:43:45.310Z,6.57
2023-02-06T12:45:59.684Z,6.93
2023-02-06T12:48:23.007Z,6.05
2023-02-06T12:50:35.873Z,6.80
2023-02-06T12:52:44.292Z,5.85
2023-02-06T12:54:53.396Z,7.30
2023-02-06T12:57:00.576Z,6.75
2023-02-06T12:59:30.655Z,7.03
2023-02-06T13:01:51.956Z,8.13
2023-02-06T13:03:59.906Z,7.25
2023-02-06T13:06:24.244Z,6.93
2023-02-06T13:08:30.838Z,7.30
2023-02-06T13:10:32.391Z,7.30
2023-02-06T13:12:34.546Z,7.18
2023-02-06T13:14:37.538Z,8.43
2023-02-06T13:16:43.024Z,9.70
2023-02-06T13:18:45.454Z,8.65
2023-02-06T13:21:19.695Z,9.55
2023-02-06T13:23:24.070Z,9.45
2023-02-06T13:25:25.424Z,9.80
2023-02-06T13:27:39.777Z,10.00
2023-02-06T13:29:53.713Z,10.13
2023-02-06T13:32:10.448Z,9.57
2023-02-06T13:34:16.929Z,9.32
2023-02-06T13:36:41.290Z,11.20
2023-02-06T13:38:43.558Z,10.35
2023-02-06T13:40:44.942Z,10.48
2023-02-06T13:43:15.452Z,10.23
2023-02-06T13:45:29.116Z,8.73
2023-02-06T13:47:52.876Z,9.32
2023-02-06T13:50:29.173Z,10.20
2023-02-06T13:52:44.151Z,9.30
2023-02-06T13:55:19.380Z,9.68
2023-02-06T13:57:39.060Z,7.18
2023-02-06T14:01:47.954Z,7.45
2023-02-06T14:03:51.168Z,8.98
2023-02-06T14:06:20.402Z,8.30
2023-02-06T14:08:30.468Z,7.60
2023-02-06T14:10:31.820Z,8.48
2023-02-06T14:12:48.420Z,8.93
2023-02-06T14:15:17.744Z,8.73
2023-02-06T14:17:37.273Z,7.88
2023-02-06T14:19:59.796Z,8.27
2023-02-06T14:22:13.788Z,8.30
2023-02-06T14:24:53.899Z,8.73
2023-02-06T14:27:16.139Z,7.47
2023-02-06T14:29:31.484Z,8.98
2023-02-06T14:32:04.525Z,9.35
2023-02-06T14:34:38.593Z,9.85
2023-02-06T14:36:55.159Z,11.77
2023-02-06T14:39:34.087Z,9.50
2023-02-06T14:41:39.422Z,7.85
2023-02-06T14:43:44.094Z,8.57
2023-02-06T14:46:05.626Z,7.78
2023-02-06T14:48:22.342Z,7.20
2023-02-06T14:50:33.090Z,7.07
2023-02-06T14:52:34.965Z,6.25
2023-02-06T14:54:41.560Z,6.85
2023-02-06T14:56:42.999Z,6.82
2023-02-06T14:58:46.363Z,6.97
2023-02-06T15:00:47.908Z,7.57
2023-02-06T15:03:16.057Z,7.53
2023-02-06T15:05:24.582Z,7.00
2023-02-06T15:07:37.193Z,6.78
2023-02-06T15:09:43.801Z,6.90
2023-02-06T15:11:52.309Z,6.35
2023-02-06T15:13:56.433Z,5.70
2023-02-06T15:15:57.852Z,5.20
2023-02-06T15:18:16.294Z,6.30
2023-02-06T15:20:20.746Z,5.18
2023-02-06T15:22:27.605Z,5.15
2023-02-06T15:24:38.069Z,6.03
2023-02-06T15:27:01.267Z,5.05
2023-02-06T15:29:05.115Z,6.00
2023-02-06T15:31:16.396Z,5.45
2023-02-06T15:33:23.479Z,4.72
2023-02-06T15:37:35.992Z,4.82
2023-02-06T15:39:40.173Z,5.40
2023-02-06T15:41:45.554Z,5.30
2023-02-06T15:43:48.012Z,4.95
2023-02-06T15:45:51.151Z,5.55
2023-02-06T15:47:54.160Z,4.80
2023-02-06T15:49:56.958Z,5.40
2023-02-06T15:51:58.480Z,5.80
2023-02-06T15:54:22.558Z,5.72
2023-02-06T15:56:34.034Z,6.55
2023-02-06T15:58:36.837Z,6.18
2023-02-06T16:00:38.526Z,5.57
2023-02-06T16:02:40.965Z,5.93
2023-02-06T16:04:42.410Z,4.78
2023-02-06T16:06:45.518Z,5.68
2023-02-06T16:08:57.320Z,5.57
2023-02-06T16:11:04.399Z,4.60
2023-02-06T16:15:36.860Z,4.22
2023-02-06T16:17:41.175Z,4.18
2023-02-06T16:19:53.793Z,4.63
2023-02-06T16:22:06.635Z,4.35
2023-02-06T16:24:17.609Z,3.97
2023-02-06T16:26:24.980Z,5.53
2023-02-06T16:28:27.903Z,4.00
2023-02-06T16:30:32.824Z,4.65
2023-02-06T16:32:35.372Z,5.10
2023-02-06T16:34:41.049Z,5.03
2023-02-06T16:36:42.569Z,4.55
2023-02-06T16:38:53.991Z,4.38
2023-02-06T16:41:03.307Z,4.22
2023-02-06T16:43:11.594Z,4.60
2023-02-06T16:45:23.399Z,4.40
2023-02-06T16:47:24.911Z,4.60
2023-02-06T16:49:26.305Z,4.63
2023-02-06T16:51:29.885Z,4.43
2023-02-06T16:53:31.727Z,4.35
2023-02-06T16:55:33.398Z,4.57
2023-02-06T16:57:41.758Z,4.22
2023-02-06T16:59:43.194Z,4.78
2023-02-06T17:01:44.642Z,4.05
2023-02-06T17:03:46.025Z,3.92
2023-02-06T17:05:50.031Z,4.13
2023-02-06T17:07:52.071Z,4.60
2023-02-06T17:09:56.691Z,4.60
2023-02-06T17:11:58.236Z,4.93
2023-02-06T17:13:59.820Z,4.70
2023-02-06T17:16:01.340Z,4.68
2023-02-06T17:18:02.732Z,5.15
2023-02-06T17:20:04.888Z,5.40
2023-02-06T17:22:08.205Z,6.18
2023-02-06T17:24:09.662Z,6.00
2023-02-06T17:26:18.182Z,6.50
2023-02-06T17:28:20.421Z,5.53
2023-02-06T17:30:24.130Z,5.95
2023-02-06T17:32:25.584Z,6.28
2023-02-06T17:34:29.419Z,5.40
2023-02-06T17:36:32.562Z,5.90
2023-02-06T17:38:33.997Z,5.93
2023-02-06T17:40:36.769Z,5.72
2023-02-06T17:42:38.498Z,6.25
2023-02-06T17:44:42.352Z,6.72
2023-02-06T17:46:44.903Z,6.43
2023-02-06T17:48:46.391Z,5.05
2023-02-06T17:50:47.838Z,4.97
2023-02-06T17:52:50.215Z,4.30
2023-02-06T17:54:51.740Z,5.10
2023-02-06T17:56:53.131Z,5.25
2023-02-06T17:58:54.493Z,4.45
2023-02-06T18:00:55.852Z,5.28
2023-02-06T18:02:59.218Z,4.97
2023-02-06T18:05:00.658Z,6.22
2023-02-06T18:07:02.049Z,6.22
2023-02-06T18:09:04.392Z,6.60
2023-02-06T18:11:21.370Z,8.73
2023-02-06T18:13:25.035Z,7.95
2023-02-06T18:15:26.450Z,8.32
2023-02-06T18:17:27.965Z,7.82
2023-02-06T18:19:30.217Z,8.32
2023-02-06T18:21:31.651Z,6.95
2023-02-06T18:23:33.301Z,6.65
2023-02-06T18:25:39.071Z,6.68
2023-02-06T18:27:41.687Z,6.57
2023-02-06T18:29:49.674Z,6.25
2023-02-06T18:31:51.927Z,8.27
2023-02-06T18:33:54.730Z,6.90
2023-02-06T18:35:56.663Z,8.65
2023-02-06T18:37:58.436Z,7.40
2023-02-06T18:39:59.932Z,8.40
2023-02-06T18:42:20.166Z,8.63
2023-02-06T18:44:21.571Z,6.13
2023-02-06T18:46:22.970Z,6.15
2023-02-06T18:48:24.655Z,6.15
2023-02-06T18:50:26.332Z,5.78
2023-02-06T18:52:28.819Z,6.93
2023-02-06T18:54:30.487Z,6.35
2023-02-06T18:56:32.451Z,6.45
2023-02-06T18:58:33.875Z,5.60
2023-02-06T19:00:37.734Z,9.38
2023-02-06T19:02:39.862Z,5.90
2023-02-06T19:04:41.363Z,7.20
2023-02-06T19:06:45.056Z,7.03
2023-02-06T19:08:46.889Z,6.47
2023-02-06T19:10:48.290Z,6.97
2023-02-06T19:12:49.779Z,7.60
2023-02-06T19:14:51.176Z,7.47
2023-02-06T19:16:53.115Z,7.75
2023-02-06T19:18:54.718Z,7.53
2023-02-06T19:20:56.075Z,6.40
2023-02-06T19:22:57.557Z,8.27
2023-02-06T19:24:58.916Z,8.27
2023-02-06T19:27:01.911Z,7.75
2023-02-06T19:29:04.142Z,6.63
2023-02-06T19:31:06.806Z,7.82
2023-02-06T19:33:08.427Z,7.47
2023-02-06T19:35:11.802Z,8.85
2023-02-06T19:37:13.646Z,8.10
2023-02-06T19:39:15.036Z,7.15
2023-02-06T19:41:23.815Z,7.47
2023-02-06T19:43:25.211Z,8.20
2023-02-06T19:45:26.720Z,6.88
2023-02-06T19:47:28.109Z,8.32
2023-02-06T19:49:29.911Z,8.35
2023-02-06T19:51:34.624Z,9.45
2023-02-06T19:53:36.521Z,9.77
2023-02-06T19:55:37.965Z,11.88
2023-02-06T19:57:39.754Z,11.90
2023-02-06T19:59:41.995Z,13.52
2023-02-06T20:01:48.182Z,16.25
2023-02-06T20:03:50.125Z,16.08
2023-02-06T20:05:51.545Z,17.88
2023-02-06T20:07:53.931Z,17.92
2023-02-06T20:09:55.801Z,19.23
2023-02-06T20:11:57.550Z,19.15
2023-02-06T20:13:59.103Z,18.92
2023-02-06T20:16:03.554Z,19.80
2023-02-06T20:18:05.401Z,20.02
2023-02-06T20:20:07.865Z,18.90
2023-02-06T20:22:09.482Z,19.83
2023-02-06T20:24:13.587Z,19.88
2023-02-06T20:26:16.790Z,18.73
2023-02-06T20:28:18.950Z,18.25
2023-02-06T20:30:22.010Z,17.45
2023-02-06T20:32:24.234Z,17.10
2023-02-06T20:34:26.992Z,17.85
2023-02-06T20:36:28.975Z,15.85
2023-02-06T20:38:31.088Z,15.98
2023-02-06T20:40:32.494Z,14.50
2023-02-06T20:42:34.630Z,14.27
2023-02-06T20:44:36.104Z,13.82
2023-02-06T20:46:38.327Z,12.75
2023-02-06T20:48:39.720Z,13.55
2023-02-06T20:50:41.147Z,12.63
2023-02-06T20:52:42.895Z,12.63
2023-02-06T20:54:44.375Z,11.02
2023-02-06T20:56:46.023Z,10.65
2023-02-06T20:58:50.110Z,10.98
2023-02-06T21:00:52.577Z,11.65
2023-02-06T21:02:54.022Z,11.55
2023-02-06T21:04:55.502Z,11.85
2023-02-06T21:06:56.924Z,12.05
2023-02-06T21:09:00.746Z,10.48
2023-02-06T21:11:02.529Z,10.90
2023-02-06T21:13:03.909Z,12.75
2023-02-06T21:15:05.737Z,11.80
2023-02-06T21:17:08.358Z,12.20
2023-02-06T21:19:12.104Z,11.77
2023-02-06T21:21:15.329Z,12.52
2023-02-06T21:23:17.400Z,13.25
2023-02-06T21:25:18.974Z,14.02
2023-02-06T21:27:20.379Z,16.00
2023-02-06T21:29:23.044Z,14.68
2023-02-06T21:31:35.956Z,13.48
2023-02-06T21:33:38.921Z,11.90
2023-02-06T21:35:40.379Z,11.30
2023-02-06T21:37:41.731Z,11.77
2023-02-06T21:39:43.327Z,12.65
2023-02-06T21:41:45.692Z,11.57
2023-02-06T21:43:47.453Z,11.20
2023-02-06T21:45:48.895Z,12.52
2023-02-06T21:47:50.316Z,10.88
2023-02-06T21:49:51.720Z,11.35
2023-02-06T21:51:53.352Z,10.88
2023-02-06T21:53:56.325Z,10.55
2023-02-06T21:55:59.044Z,11.30
2023-02-06T21:58:01.190Z,12.18
2023-02-06T22:00:02.873Z,11.00
2023-02-06T22:02:04.852Z,10.93
2023-02-06T22:04:07.833Z,10.75
2023-02-06T22:06:11.502Z,11.43
2023-02-06T22:08:12.936Z,10.65
2023-02-06T22:10:14.572Z,11.50
2023-02-06T22:12:15.997Z,11.63
2023-02-06T22:14:18.405Z,10.23
2023-02-06T22:16:22.008Z,10.88
2023-02-06T22:18:23.465Z,11.27
2023-02-06T22:20:25.108Z,10.80
2023-02-06T22:22:26.489Z,11.23
2023-02-06T22:24:27.940Z,11.43
2023-02-06T22:26:30.271Z,12.20
2023-02-06T22:28:32.113Z,11.65
2023-02-06T22:30:33.569Z,11.55
2023-02-06T22:32:39.616Z,13.45
2023-02-06T22:34:41.011Z,12.80
2023-02-06T22:36:44.433Z,11.55
2023-02-06T22:38:46.901Z,12.15
2023-02-06T22:40:58.238Z,11.18
2023-02-06T22:42:59.767Z,12.60
2023-02-06T22:45:01.311Z,14.70
2023-02-06T22:47:02.704Z,16.52
2023-02-06T22:49:06.342Z,18.02
2023-02-06T22:51:09.764Z,16.38
2023-02-06T22:53:30.068Z,14.55
2023-02-06T22:55:51.444Z,14.32
2023-02-06T22:57:52.898Z,13.18
2023-02-06T22:59:54.262Z,12.27
2023-02-06T23:01:57.957Z,13.02
2023-02-06T23:04:00.896Z,15.13
2023-02-06T23:06:03.854Z,13.85
2023-02-06T23:08:05.207Z,14.00
2023-02-06T23:10:06.802Z,13.75
2023-02-06T23:12:11.233Z,12.43
2023-02-06T23:14:14.308Z,13.15
2023-02-06T23:16:15.821Z,13.50
2023-02-06T23:18:17.374Z,12.52
2023-02-06T23:22:44.739Z,12.00
2023-02-06T23:24:46.212Z,13.55
2023-02-06T23:26:49.900Z,13.00
2023-02-06T23:28:51.691Z,12.20
2023-02-06T23:30:54.405Z,12.98
2023-02-06T23:32:55.818Z,13.25
2023-02-06T23:34:57.292Z,13.77
2023-02-06T23:36:58.640Z,12.63
2023-02-06T23:39:04.203Z,12.48
2023-02-06T23:41:15.367Z,12.30
2023-02-06T23:43:16.744Z,12.05
2023-02-06T23:45:18.198Z,11.77
2023-02-06T23:47:19.579Z,11.38
2023-02-06T23:49:20.976Z,12.43
2023-02-06T23:51:23.704Z,12.05
2023-02-06T23:53:25.306Z,11.50
2023-02-06T23:55:28.344Z,12.48
2023-02-06T23:57:29.778Z,12.35
2023-02-06T23:59:31.190Z,10.95
